createdAt,value
2017-04-24T00:00:51.967Z,24.6
2017-04-24T00:02:00.057Z,24.6
2017-04-24T00:03:08.145Z,24.6
2017-04-24T00:04:16.229Z,24.5
2017-04-24T00:05:24.319Z,24.5
2017-04-24T00:06:32.407Z,24.5
2017-04-24T00:07:40.493Z,24.5
2017-04-24T00:08:48.580Z,24.5
2017-04-24T00:09:56.671Z,24.4
2017-04-24T00:11:04.760Z,24.3
2017-04-24T00:12:12.844Z,24.4
2017-04-24T00:13:20.949Z,24.4
2017-04-24T00:14:29.019Z,24.4
2017-04-24T00:15:37.108Z,24.4
2017-04-24T00:16:45.191Z,24.3
2017-04-24T00:17:53.282Z,24.3
2017-04-24T00:19:01.369Z,24.3
2017-04-24T00:20:09.464Z,24.3
2017-04-24T00:21:17.553Z,24.3
2017-04-24T00:22:25.642Z,24.3
2017-04-24T00:23:33.728Z,24.3
2017-04-24T00:24:41.817Z,24.2
2017-04-24T00:25:49.901Z,24.2
2017-04-24T00:26:57.989Z,24.2
2017-04-24T00:28:06.072Z,24.2
2017-04-24T00:29:14.165Z,24.2
2017-04-24T00:30:22.253Z,24.1
2017-04-24T00:31:30.337Z,24.1
2017-04-24T00:32:38.436Z,24.1
2017-04-24T00:33:46.520Z,24.1
2017-04-24T00:34:54.609Z,24.0
2017-04-24T00:36:02.691Z,24.0
2017-04-24T00:37:10.781Z,24.0
2017-04-24T00:38:18.869Z,23.9
2017-04-24T00:39:26.952Z,24.0
2017-04-24T00:40:35.044Z,24.0
2017-04-24T00:41:43.132Z,24.0
2017-04-24T00:42:51.214Z,23.9
2017-04-24T00:43:59.305Z,24.0
2017-04-24T00:45:07.391Z,24.0
2017-04-24T00:46:15.480Z,23.9
2017-04-24T00:47:23.562Z,23.9
2017-04-24T00:48:31.649Z,23.9
2017-04-24T00:49:39.735Z,23.8
2017-04-24T00:50:47.823Z,23.8
2017-04-24T00:51:55.908Z,23.9
2017-04-24T00:53:04.001Z,23.8
2017-04-24T00:54:12.086Z,23.8
2017-04-24T00:55:20.174Z,23.7
2017-04-24T00:56:28.263Z,23.8
2017-04-24T00:57:36.433Z,23.8
2017-04-24T00:58:44.437Z,23.8
2017-04-24T00:59:52.519Z,23.7
2017-04-24T01:01:00.606Z,23.8
2017-04-24T01:02:08.693Z,23.7
2017-04-24T01:03:16.778Z,23.7
2017-04-24T01:04:24.868Z,23.6
2017-04-24T01:05:32.958Z,23.6
2017-04-24T01:06:41.040Z,23.6
2017-04-24T01:07:49.127Z,23.6
2017-04-24T01:08:57.217Z,23.6
2017-04-24T01:10:05.307Z,23.5
2017-04-24T01:11:13.388Z,23.5
2017-04-24T01:12:21.478Z,23.6
2017-04-24T01:13:29.564Z,23.5
2017-04-24T01:14:37.734Z,23.6
2017-04-24T01:15:45.738Z,23.5
2017-04-24T01:16:53.831Z,23.5
2017-04-24T01:18:01.910Z,23.5
2017-04-24T01:19:10.001Z,23.4
2017-04-24T01:20:18.090Z,23.5
2017-04-24T01:21:26.176Z,23.4
2017-04-24T01:22:34.257Z,23.5
2017-04-24T01:23:42.343Z,23.4
2017-04-24T01:24:50.429Z,23.4
2017-04-24T01:25:58.524Z,23.4
2017-04-24T01:27:06.608Z,23.3
2017-04-24T01:28:14.697Z,23.3
2017-04-24T01:29:22.783Z,23.3
2017-04-24T01:30:30.867Z,23.4
2017-04-24T01:31:39.018Z,23.3
2017-04-24T01:32:47.043Z,23.2
2017-04-24T01:33:55.127Z,23.2
2017-04-24T01:35:03.213Z,23.2
2017-04-24T01:36:11.302Z,23.2
2017-04-24T01:37:19.387Z,23.2
2017-04-24T01:38:27.472Z,23.2
2017-04-24T01:39:35.561Z,23.1
2017-04-24T01:40:43.646Z,23.2
2017-04-24T01:41:51.729Z,23.2
2017-04-24T01:42:59.817Z,23.1
2017-04-24T01:44:07.908Z,23.2
2017-04-24T01:45:15.992Z,23.1
2017-04-24T01:46:24.073Z,23.1
2017-04-24T01:47:32.163Z,23.1
2017-04-24T01:48:40.250Z,23.1
2017-04-24T01:49:48.336Z,23.1
2017-04-24T01:50:56.419Z,22.9
2017-04-24T01:52:04.507Z,22.9
2017-04-24T01:53:12.593Z,22.9
2017-04-24T01:54:20.700Z,22.9
2017-04-24T01:55:28.773Z,22.9
2017-04-24T01:56:36.862Z,22.9
2017-04-24T01:57:44.943Z,23.0
2017-04-24T01:58:53.026Z,22.8
2017-04-24T02:00:01.118Z,22.8
2017-04-24T02:01:09.207Z,22.9
2017-04-24T02:02:17.294Z,22.8
2017-04-24T02:03:25.382Z,22.9
2017-04-24T02:04:33.468Z,22.8
2017-04-24T02:05:41.552Z,22.8
2017-04-24T02:06:49.637Z,22.8
2017-04-24T02:07:57.726Z,22.8
2017-04-24T02:09:05.812Z,22.8
2017-04-24T02:10:13.893Z,22.7
2017-04-24T02:11:21.983Z,22.7
2017-04-24T02:12:30.068Z,22.7
2017-04-24T02:13:38.153Z,22.6
2017-04-24T02:14:46.240Z,22.7
2017-04-24T02:15:54.340Z,22.7
2017-04-24T02:17:02.425Z,22.6
2017-04-24T02:18:10.509Z,22.6
2017-04-24T02:19:18.597Z,22.6
2017-04-24T02:20:26.688Z,22.6
2017-04-24T02:21:34.773Z,22.6
2017-04-24T02:22:42.858Z,22.5
2017-04-24T02:23:50.960Z,22.6
2017-04-24T02:24:59.039Z,22.6
2017-04-24T02:26:07.118Z,22.5
2017-04-24T02:27:15.208Z,22.5
2017-04-24T02:28:23.295Z,22.5
2017-04-24T02:29:31.377Z,22.5
2017-04-24T02:30:39.462Z,22.5
2017-04-24T02:31:47.557Z,22.5
2017-04-24T02:32:55.639Z,22.4
2017-04-24T02:34:03.723Z,22.4
2017-04-24T02:35:11.812Z,22.4
2017-04-24T02:36:19.897Z,22.4
2017-04-24T02:37:27.983Z,22.2
2017-04-24T02:38:36.066Z,22.3
2017-04-24T02:39:44.154Z,22.3
2017-04-24T02:40:52.238Z,22.3
2017-04-24T02:42:00.329Z,22.3
2017-04-24T02:43:08.430Z,22.3
2017-04-24T02:44:16.518Z,22.2
2017-04-24T02:45:24.604Z,22.2
2017-04-24T02:46:32.700Z,22.2
2017-04-24T02:47:40.785Z,22.1
2017-04-24T02:48:48.872Z,22.2
2017-04-24T02:49:56.954Z,22.2
2017-04-24T02:51:05.041Z,22.1
2017-04-24T02:52:13.125Z,22.2
2017-04-24T02:53:21.207Z,22.1
2017-04-24T02:54:29.298Z,22.1
2017-04-24T02:55:37.380Z,22.1
2017-04-24T02:56:45.463Z,22.1
2017-04-24T02:57:53.549Z,22.0
2017-04-24T02:59:01.639Z,22.0
2017-04-24T03:00:09.719Z,21.9
2017-04-24T03:01:17.809Z,21.9
2017-04-24T03:02:25.898Z,21.9
2017-04-24T03:03:33.981Z,21.9
2017-04-24T03:04:42.063Z,21.9
2017-04-24T03:05:50.169Z,21.8
2017-04-24T03:06:58.240Z,21.8
2017-04-24T03:08:06.326Z,21.9
2017-04-24T03:09:14.430Z,21.9
2017-04-24T03:10:22.498Z,21.9
2017-04-24T03:11:30.584Z,21.8
2017-04-24T03:12:38.668Z,21.7
2017-04-24T03:13:46.780Z,21.8
2017-04-24T03:14:54.865Z,21.8
2017-04-24T03:16:02.922Z,21.7
2017-04-24T03:17:11.005Z,21.7
2017-04-24T03:18:19.095Z,21.7
2017-04-24T03:19:27.181Z,21.7
2017-04-24T03:20:35.261Z,21.7
2017-04-24T03:21:43.346Z,21.6
2017-04-24T03:22:51.436Z,21.7
2017-04-24T03:23:59.521Z,21.6
2017-04-24T03:25:07.605Z,21.6
2017-04-24T03:26:15.693Z,21.6
2017-04-24T03:27:23.777Z,21.6
2017-04-24T03:28:31.860Z,21.7
2017-04-24T03:29:39.946Z,21.6
2017-04-24T03:30:48.034Z,21.6
2017-04-24T03:31:56.117Z,21.6
2017-04-24T03:33:04.203Z,21.6
2017-04-24T03:34:12.292Z,21.6
2017-04-24T03:35:20.377Z,21.6
2017-04-24T03:36:28.463Z,21.6
2017-04-24T03:37:36.546Z,21.6
2017-04-24T03:38:44.634Z,21.6
2017-04-24T03:39:52.720Z,21.4
2017-04-24T03:41:00.797Z,21.5
2017-04-24T03:42:08.890Z,21.5
2017-04-24T03:43:16.976Z,21.4
2017-04-24T03:44:25.058Z,21.4
2017-04-24T03:45:33.155Z,21.4
2017-04-24T03:46:41.229Z,21.4
2017-04-24T03:47:49.315Z,21.4
2017-04-24T03:48:57.404Z,21.3
2017-04-24T03:50:05.487Z,21.3
2017-04-24T03:51:13.575Z,21.3
2017-04-24T03:52:21.658Z,21.4
2017-04-24T03:53:29.754Z,21.3
2017-04-24T03:54:37.832Z,21.3
2017-04-24T03:55:45.920Z,21.2
2017-04-24T03:56:54.002Z,21.2
2017-04-24T03:58:02.094Z,21.3
2017-04-24T03:59:10.178Z,21.3
2017-04-24T04:00:18.290Z,21.2
2017-04-24T04:01:26.348Z,21.1
2017-04-24T04:02:34.444Z,21.2
2017-04-24T04:03:42.529Z,21.1
2017-04-24T04:04:50.609Z,21.1
2017-04-24T04:05:58.699Z,21.2
2017-04-24T04:07:06.781Z,21.0
2017-04-24T04:08:14.866Z,21.0
2017-04-24T04:09:22.962Z,21.0
2017-04-24T04:10:31.043Z,21.0
2017-04-24T04:11:39.132Z,21.0
2017-04-24T04:12:47.222Z,21.1
2017-04-24T04:13:55.305Z,21.0
2017-04-24T04:15:03.388Z,20.9
2017-04-24T04:16:11.471Z,21.0
2017-04-24T04:17:19.604Z,21.0
2017-04-24T04:18:27.651Z,21.0
2017-04-24T04:19:35.730Z,21.0
2017-04-24T04:20:43.825Z,20.9
2017-04-24T04:21:51.914Z,20.9
2017-04-24T04:23:00.007Z,20.9
2017-04-24T04:24:08.087Z,20.9
2017-04-24T04:25:16.173Z,20.9
2017-04-24T04:26:24.262Z,20.9
2017-04-24T04:27:32.345Z,20.9
2017-04-24T04:28:40.427Z,20.9
2017-04-24T04:29:48.522Z,20.9
2017-04-24T04:30:56.603Z,20.8
2017-04-24T04:32:04.688Z,20.9
2017-04-24T04:33:12.778Z,20.8
2017-04-24T04:34:20.891Z,20.8
2017-04-24T04:35:28.946Z,20.8
2017-04-24T04:36:37.029Z,20.8
2017-04-24T04:37:45.115Z,20.7
2017-04-24T04:38:53.205Z,20.8
2017-04-24T04:40:01.288Z,20.7
2017-04-24T04:41:09.375Z,20.7
2017-04-24T04:42:17.460Z,20.7
2017-04-24T04:43:25.554Z,20.7
2017-04-24T04:44:33.633Z,20.7
2017-04-24T04:45:41.722Z,20.6
2017-04-24T04:46:49.813Z,20.6
2017-04-24T04:47:57.893Z,20.6
2017-04-24T04:49:05.988Z,20.6
2017-04-24T04:50:14.068Z,20.7
2017-04-24T04:51:22.154Z,20.6
2017-04-24T04:52:30.243Z,20.6
2017-04-24T04:53:38.357Z,20.6
2017-04-24T04:54:46.409Z,20.6
2017-04-24T04:55:54.491Z,20.5
2017-04-24T04:57:02.579Z,20.6
2017-04-24T04:58:10.669Z,20.6
2017-04-24T04:59:18.755Z,20.6
2017-04-24T05:00:26.838Z,20.5
2017-04-24T05:01:34.927Z,20.5
2017-04-24T05:02:43.010Z,20.5
2017-04-24T05:03:51.092Z,20.5
2017-04-24T05:04:59.181Z,20.5
2017-04-24T05:06:07.264Z,20.5
2017-04-24T05:07:15.345Z,20.5
2017-04-24T05:08:23.435Z,20.4
2017-04-24T05:09:31.528Z,20.4
2017-04-24T05:10:39.610Z,20.5
2017-04-24T05:11:47.689Z,20.5
2017-04-24T05:12:55.786Z,20.5
2017-04-24T05:14:03.879Z,20.5
2017-04-24T05:15:11.959Z,20.5
2017-04-24T05:16:20.051Z,20.5
2017-04-24T05:17:28.136Z,20.5
2017-04-24T05:18:36.217Z,20.4
2017-04-24T05:19:44.303Z,20.5
2017-04-24T05:20:52.389Z,20.3
2017-04-24T05:22:00.472Z,20.4
2017-04-24T05:23:08.556Z,20.3
2017-04-24T05:24:16.645Z,20.3
2017-04-24T05:25:24.728Z,20.4
2017-04-24T05:26:32.813Z,20.4
2017-04-24T05:27:40.893Z,20.4
2017-04-24T05:28:48.982Z,20.3
2017-04-24T05:29:57.064Z,20.3
2017-04-24T05:31:05.148Z,20.3
2017-04-24T05:32:13.243Z,20.3
2017-04-24T05:33:21.331Z,20.3
2017-04-24T05:34:29.407Z,20.3
2017-04-24T05:35:37.490Z,20.3
2017-04-24T05:36:45.579Z,20.3
2017-04-24T05:37:53.665Z,20.2
2017-04-24T05:39:01.743Z,20.3
2017-04-24T05:40:09.835Z,20.1
2017-04-24T05:41:17.920Z,20.2
2017-04-24T05:42:26.207Z,20.2
2017-04-24T05:43:34.086Z,20.2
2017-04-24T05:44:42.175Z,20.1
2017-04-24T05:45:50.261Z,20.2
2017-04-24T05:46:58.341Z,20.1
2017-04-24T05:48:06.429Z,20.2
2017-04-24T05:49:14.933Z,20.1
2017-04-24T05:50:23.108Z,20.1
2017-04-24T05:51:30.806Z,20.3
2017-04-24T05:52:38.767Z,20.1
2017-04-24T05:53:46.845Z,20.1
2017-04-24T05:54:54.931Z,20.1
2017-04-24T05:56:03.023Z,20.1
2017-04-24T05:57:11.107Z,20.1
2017-04-24T05:58:19.187Z,20.1
2017-04-24T05:59:27.276Z,20.1
2017-04-24T06:00:35.365Z,20.1
2017-04-24T06:01:43.444Z,20.1
2017-04-24T06:02:51.526Z,20.1
2017-04-24T06:03:59.614Z,20.1
2017-04-24T06:05:07.704Z,20.1
2017-04-24T06:06:15.782Z,20.1
2017-04-24T06:07:23.869Z,20.1
2017-04-24T06:08:31.957Z,20.1
2017-04-24T06:09:40.038Z,20.1
2017-04-24T06:10:48.128Z,20.1
2017-04-24T06:11:56.214Z,20.0
2017-04-24T06:13:04.295Z,20.1
2017-04-24T06:14:12.378Z,20.1
2017-04-24T06:15:20.460Z,20.0
2017-04-24T06:16:28.547Z,20.0
2017-04-24T06:17:36.627Z,20.0
2017-04-24T06:18:44.712Z,20.0
2017-04-24T06:19:52.803Z,20.1
2017-04-24T06:21:00.894Z,20.0
2017-04-24T06:22:08.969Z,20.0
2017-04-24T06:23:17.058Z,20.0
2017-04-24T06:24:25.144Z,20.0
2017-04-24T06:25:33.228Z,19.9
2017-04-24T06:26:41.307Z,20.0
2017-04-24T06:27:49.395Z,20.0
2017-04-24T06:28:57.482Z,19.9
2017-04-24T06:30:05.566Z,20.0
2017-04-24T06:31:13.654Z,19.9
2017-04-24T06:32:21.746Z,19.9
2017-04-24T06:33:29.837Z,20.0
2017-04-24T06:34:37.910Z,19.9
2017-04-24T06:35:45.997Z,20.0
2017-04-24T06:36:54.083Z,19.9
2017-04-24T06:38:02.166Z,19.9
2017-04-24T06:39:10.252Z,19.9
2017-04-24T06:40:18.340Z,20.0
2017-04-24T06:41:26.427Z,19.9
2017-04-24T06:42:34.508Z,20.0
2017-04-24T06:43:42.597Z,19.9
2017-04-24T06:44:50.680Z,19.9
2017-04-24T06:45:58.762Z,19.9
2017-04-24T06:47:06.848Z,19.9
2017-04-24T06:48:14.933Z,19.9
2017-04-24T06:49:23.018Z,19.9
2017-04-24T06:50:31.103Z,19.8
2017-04-24T06:51:39.187Z,19.9
2017-04-24T06:52:47.277Z,19.9
2017-04-24T06:53:55.359Z,19.9
2017-04-24T06:55:03.446Z,19.8
2017-04-24T06:56:11.529Z,19.8
2017-04-24T06:57:19.610Z,19.9
2017-04-24T06:58:27.702Z,19.9
2017-04-24T06:59:35.786Z,19.8
2017-04-24T07:00:43.869Z,19.8
2017-04-24T07:01:51.954Z,19.8
2017-04-24T07:03:00.039Z,19.8
2017-04-24T07:04:08.127Z,19.7
2017-04-24T07:05:16.208Z,19.8
2017-04-24T07:06:24.295Z,19.8
2017-04-24T07:07:32.381Z,19.9
2017-04-24T07:08:40.459Z,19.8
2017-04-24T07:09:48.545Z,19.7
2017-04-24T07:10:56.630Z,19.7
2017-04-24T07:12:04.721Z,19.8
2017-04-24T07:13:12.806Z,19.7
2017-04-24T07:14:20.897Z,19.8
2017-04-24T07:15:28.981Z,19.7
2017-04-24T07:16:37.062Z,19.8
2017-04-24T07:17:45.148Z,19.8
2017-04-24T07:18:53.236Z,19.8
2017-04-24T07:20:01.391Z,19.7
2017-04-24T07:21:09.405Z,19.8
2017-04-24T07:22:17.492Z,19.7
2017-04-24T07:23:25.578Z,19.7
2017-04-24T07:24:33.669Z,19.8
2017-04-24T07:25:41.769Z,19.7
2017-04-24T07:26:49.833Z,19.7
2017-04-24T07:27:57.926Z,19.7
2017-04-24T07:29:06.003Z,19.7
2017-04-24T07:30:14.091Z,19.7
2017-04-24T07:31:22.189Z,19.7
2017-04-24T07:32:30.262Z,19.8
2017-04-24T07:33:38.346Z,19.7
2017-04-24T07:34:46.437Z,19.7
2017-04-24T07:35:54.519Z,19.7
2017-04-24T07:37:02.666Z,19.7
2017-04-24T07:38:10.687Z,19.7
2017-04-24T07:39:18.770Z,19.7
2017-04-24T07:40:26.857Z,19.7
2017-04-24T07:41:35.288Z,19.6
2017-04-24T07:42:43.029Z,19.7
2017-04-24T07:43:51.120Z,19.7
2017-04-24T07:44:59.195Z,19.7
2017-04-24T07:46:07.287Z,19.6
2017-04-24T07:47:15.368Z,19.7
2017-04-24T07:48:23.456Z,19.7
2017-04-24T07:49:31.539Z,19.7
2017-04-24T07:50:39.623Z,19.6
2017-04-24T07:51:47.709Z,19.7
2017-04-24T07:52:55.789Z,19.7
2017-04-24T07:54:03.881Z,19.7
2017-04-24T07:55:11.964Z,19.7
2017-04-24T07:56:20.047Z,19.7
2017-04-24T07:57:28.136Z,19.7
2017-04-24T07:58:36.222Z,19.8
2017-04-24T07:59:44.304Z,19.8
2017-04-24T08:00:52.388Z,19.7
2017-04-24T08:02:00.472Z,19.7
2017-04-24T08:03:08.558Z,19.7
2017-04-24T08:04:16.637Z,19.7
2017-04-24T08:05:24.727Z,19.7
2017-04-24T08:06:32.810Z,19.7
2017-04-24T08:07:40.891Z,19.7
2017-04-24T08:08:48.975Z,19.7
2017-04-24T08:09:57.062Z,19.7
2017-04-24T08:11:05.149Z,19.7
2017-04-24T08:12:13.233Z,19.7
2017-04-24T08:13:21.317Z,19.7
2017-04-24T08:14:29.398Z,19.7
2017-04-24T08:15:37.485Z,19.7
2017-04-24T08:16:45.566Z,19.7
2017-04-24T08:17:53.653Z,19.7
2017-04-24T08:19:01.738Z,19.8
2017-04-24T08:20:09.817Z,19.7
2017-04-24T08:21:17.908Z,19.8
2017-04-24T08:22:25.998Z,19.8
2017-04-24T08:23:34.079Z,19.7
2017-04-24T08:24:42.157Z,19.7
2017-04-24T08:25:50.246Z,19.7
2017-04-24T08:26:58.332Z,19.7
2017-04-24T08:28:06.413Z,19.8
2017-04-24T08:29:14.501Z,19.8
2017-04-24T08:30:22.588Z,19.7
2017-04-24T08:31:30.671Z,19.8
2017-04-24T08:32:38.753Z,19.8
2017-04-24T08:33:46.841Z,19.8
2017-04-24T08:34:54.926Z,19.8
2017-04-24T08:36:03.005Z,19.8
2017-04-24T08:37:11.141Z,19.8
2017-04-24T08:38:19.179Z,19.8
2017-04-24T08:39:27.261Z,19.8
2017-04-24T08:40:35.340Z,19.9
2017-04-24T08:41:43.432Z,19.8
2017-04-24T08:42:51.513Z,19.9
2017-04-24T08:43:59.598Z,19.9
2017-04-24T08:45:07.688Z,19.9
2017-04-24T08:46:15.771Z,19.9
2017-04-24T08:47:23.857Z,19.9
2017-04-24T08:48:31.947Z,19.9
2017-04-24T08:49:40.025Z,19.9
2017-04-24T08:50:48.113Z,19.9
2017-04-24T08:51:56.194Z,19.9
2017-04-24T08:53:04.285Z,19.9
2017-04-24T08:54:12.366Z,20.0
2017-04-24T08:55:20.449Z,19.9
2017-04-24T08:56:28.536Z,19.9
2017-04-24T08:57:36.626Z,20.0
2017-04-24T08:58:44.717Z,20.0
2017-04-24T08:59:52.794Z,19.9
2017-04-24T09:01:00.884Z,20.0
2017-04-24T09:02:08.964Z,20.0
2017-04-24T09:03:17.050Z,19.9
2017-04-24T09:04:25.135Z,19.9
2017-04-24T09:05:33.218Z,20.0
2017-04-24T09:06:41.301Z,20.0
2017-04-24T09:07:49.387Z,20.0
2017-04-24T09:08:57.476Z,20.0
2017-04-24T09:10:05.560Z,19.9
2017-04-24T09:11:13.672Z,20.0
2017-04-24T09:12:21.769Z,20.0
2017-04-24T09:13:29.815Z,20.0
2017-04-24T09:14:37.896Z,20.0
2017-04-24T09:15:45.978Z,20.0
2017-04-24T09:16:54.068Z,20.0
2017-04-24T09:18:02.149Z,20.1
2017-04-24T09:19:10.237Z,20.1
2017-04-24T09:20:18.327Z,20.1
2017-04-24T09:21:26.433Z,20.1
2017-04-24T09:22:34.497Z,20.0
2017-04-24T09:23:42.578Z,20.0
2017-04-24T09:24:50.666Z,20.0
2017-04-24T09:25:58.751Z,20.1
2017-04-24T09:27:06.834Z,20.1
2017-04-24T09:28:14.925Z,20.1
2017-04-24T09:29:23.009Z,20.1
2017-04-24T09:30:31.098Z,20.1
2017-04-24T09:31:39.185Z,20.1
2017-04-24T09:32:47.272Z,20.1
2017-04-24T09:33:55.361Z,20.0
2017-04-24T09:35:03.440Z,20.1
2017-04-24T09:36:11.529Z,20.1
2017-04-24T09:37:19.613Z,20.2
2017-04-24T09:38:27.698Z,20.1
2017-04-24T09:39:35.783Z,20.1
2017-04-24T09:40:43.869Z,20.1
2017-04-24T09:41:51.949Z,20.1
2017-04-24T09:43:00.045Z,20.1
2017-04-24T09:44:08.136Z,20.1
2017-04-24T09:45:16.225Z,20.1
2017-04-24T09:46:24.310Z,20.1
2017-04-24T09:47:32.392Z,20.1
2017-04-24T09:48:40.480Z,20.2
2017-04-24T09:49:48.568Z,20.1
2017-04-24T09:50:56.652Z,20.2
2017-04-24T09:52:04.748Z,20.1
2017-04-24T09:53:12.829Z,20.2
2017-04-24T09:54:20.913Z,20.1
2017-04-24T09:55:29.001Z,20.1
2017-04-24T09:56:37.086Z,20.1
2017-04-24T09:57:45.170Z,20.2
2017-04-24T09:58:53.254Z,20.2
2017-04-24T10:00:01.515Z,20.1
2017-04-24T10:01:09.429Z,20.2
2017-04-24T10:02:17.512Z,20.2
2017-04-24T10:03:25.643Z,20.2
2017-04-24T10:04:33.689Z,20.2
2017-04-24T10:05:41.850Z,20.2
2017-04-24T10:06:49.858Z,20.2
2017-04-24T10:07:57.946Z,20.2
2017-04-24T10:09:06.034Z,20.2
2017-04-24T10:10:14.272Z,20.2
2017-04-24T10:11:22.203Z,20.2
2017-04-24T10:12:30.296Z,20.1
2017-04-24T10:13:38.779Z,20.2
2017-04-24T10:14:47.089Z,20.2
2017-04-24T10:15:54.549Z,20.2
2017-04-24T10:17:02.635Z,20.2
2017-04-24T10:18:10.720Z,20.2
2017-04-24T10:19:19.210Z,20.2
2017-04-24T10:20:27.325Z,20.2
2017-04-24T10:21:34.982Z,20.2
2017-04-24T10:22:43.322Z,20.2
2017-04-24T10:23:51.151Z,20.3
2017-04-24T10:24:59.889Z,20.3
2017-04-24T10:26:07.322Z,20.2
2017-04-24T10:27:15.737Z,20.2
2017-04-24T10:28:24.102Z,20.3
2017-04-24T10:29:31.581Z,20.3
2017-04-24T10:30:39.670Z,20.2
2017-04-24T10:31:47.753Z,20.2
2017-04-24T10:32:55.839Z,20.3
2017-04-24T10:34:03.919Z,20.3
2017-04-24T10:35:12.006Z,20.3
2017-04-24T10:36:20.090Z,20.3
2017-04-24T10:37:28.422Z,20.3
2017-04-24T10:38:36.271Z,20.3
2017-04-24T10:39:44.647Z,20.3
2017-04-24T10:40:52.909Z,20.3
2017-04-24T10:42:00.522Z,20.2
2017-04-24T10:43:08.841Z,20.3
2017-04-24T10:44:17.391Z,20.4
2017-04-24T10:45:24.777Z,20.4
2017-04-24T10:46:32.862Z,20.4
2017-04-24T10:47:40.950Z,20.4
2017-04-24T10:48:49.035Z,20.4
2017-04-24T10:49:57.116Z,20.4
2017-04-24T10:51:05.857Z,20.4
2017-04-24T10:52:13.295Z,20.4
2017-04-24T10:53:21.754Z,20.3
2017-04-24T10:54:29.476Z,20.3
2017-04-24T10:55:38.103Z,20.3
2017-04-24T10:56:45.637Z,20.4
2017-04-24T10:57:53.718Z,20.4
2017-04-24T10:59:01.807Z,20.4
2017-04-24T11:00:09.894Z,20.4
2017-04-24T11:01:17.981Z,20.4
2017-04-24T11:02:26.062Z,20.4
2017-04-24T11:03:34.152Z,20.4
2017-04-24T11:04:42.252Z,20.3
2017-04-24T11:05:50.321Z,20.4
2017-04-24T11:06:58.414Z,20.4
2017-04-24T11:08:06.500Z,20.4
2017-04-24T11:09:14.581Z,20.5
2017-04-24T11:10:22.667Z,20.5
2017-04-24T11:11:30.754Z,20.5
2017-04-24T11:12:38.846Z,20.5
2017-04-24T11:13:46.925Z,20.5
2017-04-24T11:14:55.016Z,20.4
2017-04-24T11:16:03.099Z,20.5
2017-04-24T11:17:11.187Z,20.5
2017-04-24T11:18:19.275Z,20.5
2017-04-24T11:19:27.361Z,20.5
2017-04-24T11:20:35.451Z,20.4
2017-04-24T11:21:43.529Z,20.5
2017-04-24T11:22:51.622Z,20.5
2017-04-24T11:23:59.707Z,20.5
2017-04-24T11:25:07.791Z,20.5
2017-04-24T11:26:15.878Z,20.5
2017-04-24T11:27:23.971Z,20.4
2017-04-24T11:28:32.051Z,20.5
2017-04-24T11:29:40.140Z,20.5
2017-04-24T11:30:48.234Z,20.4
2017-04-24T11:31:56.314Z,20.5
2017-04-24T11:33:04.394Z,20.5
2017-04-24T11:34:12.483Z,20.5
2017-04-24T11:35:20.568Z,20.5
2017-04-24T11:36:28.654Z,20.4
2017-04-24T11:37:36.739Z,20.4
2017-04-24T11:38:44.830Z,20.5
2017-04-24T11:39:52.924Z,20.5
2017-04-24T11:41:00.996Z,20.4
2017-04-24T11:42:09.105Z,20.5
2017-04-24T11:43:17.172Z,20.4
2017-04-24T11:44:25.257Z,20.5
2017-04-24T11:45:33.343Z,20.4
2017-04-24T11:46:41.432Z,20.5
2017-04-24T11:47:49.516Z,20.5
2017-04-24T11:48:57.601Z,20.4
2017-04-24T11:50:05.685Z,20.4
2017-04-24T11:51:13.782Z,20.4
2017-04-24T11:52:21.856Z,20.4
2017-04-24T11:53:29.939Z,20.5
2017-04-24T11:54:38.029Z,20.4
2017-04-24T11:55:46.109Z,20.6
2017-04-24T11:56:54.204Z,20.5
2017-04-24T11:58:02.286Z,20.5
2017-04-24T11:59:10.379Z,20.6
2017-04-24T12:00:18.463Z,20.5
2017-04-24T12:01:26.546Z,20.5
2017-04-24T12:02:34.635Z,20.5
2017-04-24T12:03:42.720Z,20.5
2017-04-24T12:04:50.815Z,20.5
2017-04-24T12:05:58.892Z,20.5
2017-04-24T12:07:06.977Z,20.5
2017-04-24T12:08:15.060Z,20.5
2017-04-24T12:09:23.149Z,20.5
2017-04-24T12:10:31.235Z,20.5
2017-04-24T12:11:39.317Z,20.5
2017-04-24T12:12:47.403Z,20.5
2017-04-24T12:13:55.490Z,20.5
2017-04-24T12:15:03.577Z,20.5
2017-04-24T12:16:11.670Z,20.5
2017-04-24T12:17:19.751Z,20.5
2017-04-24T12:18:27.839Z,20.5
2017-04-24T12:19:35.926Z,20.4
2017-04-24T12:20:44.013Z,20.4
2017-04-24T12:21:52.146Z,20.4
2017-04-24T12:23:00.361Z,20.5
2017-04-24T12:24:08.272Z,20.4
2017-04-24T12:25:16.357Z,20.3
2017-04-24T12:26:24.448Z,20.5
2017-04-24T12:27:32.750Z,20.5
2017-04-24T12:28:40.615Z,20.5
2017-04-24T12:29:48.701Z,20.4
2017-04-24T12:30:56.793Z,20.5
2017-04-24T12:32:04.875Z,20.5
2017-04-24T12:33:12.963Z,20.4
2017-04-24T12:34:21.054Z,20.5
2017-04-24T12:35:29.142Z,20.5
2017-04-24T12:36:37.243Z,20.5
2017-04-24T12:37:45.320Z,20.4
2017-04-24T12:38:53.401Z,20.3
2017-04-24T12:40:01.499Z,20.5
2017-04-24T12:41:09.576Z,20.4
2017-04-24T12:42:17.670Z,20.4
2017-04-24T12:43:25.748Z,20.5
2017-04-24T12:44:33.832Z,20.5
2017-04-24T12:45:41.920Z,20.5
2017-04-24T12:46:50.005Z,20.4
2017-04-24T12:47:58.095Z,20.6
2017-04-24T12:49:06.171Z,20.5
2017-04-24T12:50:14.262Z,20.5
2017-04-24T12:51:22.366Z,20.4
2017-04-24T12:52:30.432Z,20.5
2017-04-24T12:53:38.521Z,20.5
2017-04-24T12:54:46.603Z,20.5
2017-04-24T12:55:54.685Z,20.5
2017-04-24T12:57:02.775Z,20.5
2017-04-24T12:58:10.860Z,20.5
2017-04-24T12:59:18.943Z,20.4
2017-04-24T13:00:27.027Z,20.5
2017-04-24T13:01:35.113Z,20.5
2017-04-24T13:02:43.209Z,20.6
2017-04-24T13:03:51.280Z,20.5
2017-04-24T13:04:59.369Z,20.4
2017-04-24T13:06:07.455Z,20.5
2017-04-24T13:07:15.534Z,20.5
2017-04-24T13:08:23.623Z,20.5
2017-04-24T13:09:31.714Z,20.5
2017-04-24T13:10:39.798Z,20.5
2017-04-24T13:11:47.880Z,20.5
2017-04-24T13:12:55.978Z,20.5
2017-04-24T13:14:04.065Z,20.5
2017-04-24T13:15:12.146Z,20.5
2017-04-24T13:16:20.241Z,20.5
2017-04-24T13:17:28.316Z,20.5
2017-04-24T13:18:36.403Z,20.5
2017-04-24T13:19:44.485Z,20.5
2017-04-24T13:20:52.574Z,20.5
2017-04-24T13:22:00.658Z,20.5
2017-04-24T13:23:08.748Z,20.4
2017-04-24T13:24:16.830Z,20.5
2017-04-24T13:25:24.929Z,20.4
2017-04-24T13:26:33.001Z,20.5
2017-04-24T13:27:41.084Z,20.4
2017-04-24T13:28:49.172Z,20.4
2017-04-24T13:29:57.252Z,20.5
2017-04-24T13:31:05.337Z,20.4
2017-04-24T13:32:13.426Z,20.4
2017-04-24T13:33:21.513Z,20.5
2017-04-24T13:34:29.595Z,20.5
2017-04-24T13:35:37.678Z,20.4
2017-04-24T13:36:45.771Z,20.4
2017-04-24T13:37:53.859Z,20.5
2017-04-24T13:39:01.939Z,20.5
2017-04-24T13:40:10.028Z,20.5
2017-04-24T13:41:18.120Z,20.5
2017-04-24T13:42:26.200Z,20.5
2017-04-24T13:43:34.293Z,20.5
2017-04-24T13:44:42.381Z,20.5
2017-04-24T13:45:50.468Z,20.5
2017-04-24T13:46:58.554Z,20.5
2017-04-24T13:48:06.643Z,20.4
2017-04-24T13:49:14.726Z,20.5
2017-04-24T13:50:22.812Z,20.5
2017-04-24T13:51:30.896Z,20.5
2017-04-24T13:52:38.982Z,20.4
2017-04-24T13:53:47.065Z,20.4
2017-04-24T13:54:55.154Z,20.5
2017-04-24T13:56:03.243Z,20.5
2017-04-24T13:57:11.325Z,20.4
2017-04-24T13:58:19.409Z,20.5
2017-04-24T13:59:27.488Z,20.5
2017-04-24T14:00:35.576Z,20.5
2017-04-24T14:01:43.662Z,20.4
2017-04-24T14:02:51.745Z,20.5
2017-04-24T14:03:59.835Z,20.4
2017-04-24T14:05:07.919Z,20.5
2017-04-24T14:06:16.001Z,20.5
2017-04-24T14:07:24.090Z,20.4
2017-04-24T14:08:32.190Z,20.4
2017-04-24T14:09:40.261Z,20.5
2017-04-24T14:10:48.341Z,20.4
2017-04-24T14:11:56.431Z,20.4
2017-04-24T14:13:04.517Z,20.4
2017-04-24T14:14:12.600Z,20.4
2017-04-24T14:15:20.687Z,20.3
2017-04-24T14:16:28.771Z,20.4
2017-04-24T14:17:36.852Z,20.3
2017-04-24T14:18:44.946Z,20.4
2017-04-24T14:19:53.043Z,20.5
2017-04-24T14:21:01.120Z,20.4
2017-04-24T14:22:09.200Z,20.4
2017-04-24T14:23:17.299Z,20.4
2017-04-24T14:24:25.385Z,20.4
2017-04-24T14:25:33.526Z,20.5
2017-04-24T14:26:41.551Z,20.5
2017-04-24T14:27:49.639Z,20.4
2017-04-24T14:28:57.727Z,20.5
2017-04-24T14:30:05.815Z,20.5
2017-04-24T14:31:13.902Z,20.3
2017-04-24T14:32:21.991Z,20.5
2017-04-24T14:33:30.079Z,20.5
2017-04-24T14:34:38.156Z,20.4
2017-04-24T14:35:46.244Z,20.5
2017-04-24T14:36:54.331Z,20.5
2017-04-24T14:38:02.417Z,20.4
2017-04-24T14:39:10.496Z,20.3
2017-04-24T14:40:18.581Z,20.5
2017-04-24T14:41:26.669Z,20.5
2017-04-24T14:42:34.756Z,20.5
2017-04-24T14:43:42.847Z,20.5
2017-04-24T14:44:50.929Z,20.4
2017-04-24T14:45:59.010Z,20.4
2017-04-24T14:47:07.099Z,20.5
2017-04-24T14:48:15.186Z,20.5
2017-04-24T14:49:23.266Z,20.5
2017-04-24T14:50:31.360Z,20.5
2017-04-24T14:51:39.443Z,20.3
2017-04-24T14:52:47.527Z,20.5
2017-04-24T14:53:55.610Z,20.6
2017-04-24T14:55:03.698Z,20.5
2017-04-24T14:56:11.783Z,20.5
2017-04-24T14:57:19.870Z,20.5
2017-04-24T14:58:27.958Z,20.5
2017-04-24T14:59:36.102Z,20.5
2017-04-24T15:00:44.393Z,20.5
2017-04-24T15:01:52.218Z,20.5
2017-04-24T15:03:00.309Z,20.5
2017-04-24T15:04:08.388Z,20.5
2017-04-24T15:05:16.597Z,20.5
2017-04-24T15:06:24.564Z,20.5